createdAt,value
2022-09-07T00:00:39.870Z,9.73
2022-09-07T00:03:06.572Z,7.25
2022-09-07T00:05:33.793Z,7.82
2022-09-07T00:08:00.950Z,8.52
2022-09-07T00:10:27.820Z,5.18
2022-09-07T00:12:54.412Z,6.93
2022-09-07T00:15:20.958Z,5.30
2022-09-07T00:17:47.517Z,8.70
2022-09-07T00:20:15.065Z,9.50
2022-09-07T00:22:41.671Z,6.95
2022-09-07T00:25:08.982Z,7.63
2022-09-07T00:27:35.545Z,6.25
2022-09-07T00:30:02.097Z,6.53
2022-09-07T00:32:28.669Z,7.00
2022-09-07T00:34:55.197Z,8.52
2022-09-07T00:37:21.811Z,6.60
2022-09-07T00:39:49.468Z,5.95
2022-09-07T00:42:19.854Z,9.40
2022-09-07T00:44:58.531Z,6.07
2022-09-07T00:47:27.699Z,7.63
2022-09-07T00:50:00.033Z,7.03
2022-09-07T00:52:29.698Z,9.15
2022-09-07T00:55:01.907Z,6.82
2022-09-07T00:57:29.023Z,10.02
2022-09-07T00:59:57.553Z,5.63
2022-09-07T01:02:25.709Z,7.35
2022-09-07T01:05:04.458Z,7.10
2022-09-07T01:07:33.686Z,6.68
2022-09-07T01:10:00.962Z,6.05
2022-09-07T01:12:27.579Z,7.35
2022-09-07T01:14:55.798Z,7.60
2022-09-07T01:17:35.441Z,7.95
2022-09-07T01:20:20.612Z,6.65
2022-09-07T01:23:02.258Z,6.45
2022-09-07T01:25:40.814Z,8.90
2022-09-07T01:28:13.313Z,8.95
2022-09-07T01:30:49.620Z,10.10
2022-09-07T01:33:23.011Z,6.43
2022-09-07T01:36:01.004Z,9.05
2022-09-07T01:38:36.911Z,6.93
2022-09-07T01:41:11.439Z,9.73
2022-09-07T01:43:54.105Z,8.38
2022-09-07T01:46:52.704Z,7.55
2022-09-07T01:49:35.557Z,6.72
2022-09-07T01:52:14.564Z,8.73
2022-09-07T01:54:46.834Z,8.82
2022-09-07T01:57:19.093Z,10.13
2022-09-07T01:59:55.754Z,8.00
2022-09-07T02:02:29.745Z,13.68
2022-09-07T02:05:20.964Z,10.35
2022-09-07T02:08:00.797Z,12.77
2022-09-07T02:10:56.546Z,11.45
2022-09-07T02:13:31.280Z,18.65
2022-09-07T02:16:03.136Z,12.13
2022-09-07T02:21:03.081Z,12.52
2022-09-07T02:23:37.083Z,13.57
2022-09-07T02:26:07.388Z,14.07
2022-09-07T02:28:36.573Z,12.95
2022-09-07T02:31:03.529Z,11.75
2022-09-07T02:33:30.610Z,14.38
2022-09-07T02:35:57.846Z,12.32
2022-09-07T02:38:25.370Z,14.80
2022-09-07T02:40:53.630Z,17.98
2022-09-07T02:43:22.204Z,14.23
2022-09-07T02:46:07.540Z,13.25
2022-09-07T02:48:42.751Z,13.45
2022-09-07T02:51:24.569Z,13.68
2022-09-07T02:54:15.775Z,12.63
2022-09-07T02:57:14.342Z,13.63
2022-09-07T03:00:09.921Z,13.77
2022-09-07T03:02:54.546Z,10.95
2022-09-07T03:05:29.139Z,11.85
2022-09-07T03:08:10.770Z,11.68
2022-09-07T03:10:39.489Z,12.65
2022-09-07T03:13:06.230Z,14.60
2022-09-07T03:15:32.908Z,12.32
2022-09-07T03:17:59.583Z,15.40
2022-09-07T03:20:26.080Z,12.32
2022-09-07T03:22:52.893Z,15.35
2022-09-07T03:25:19.837Z,16.80
2022-09-07T03:27:46.374Z,14.57
2022-09-07T03:30:13.496Z,23.02
2022-09-07T03:32:40.071Z,15.05
2022-09-07T03:35:08.194Z,17.85
2022-09-07T03:37:38.756Z,16.58
2022-09-07T03:40:07.967Z,17.40
2022-09-07T03:42:34.999Z,17.17
2022-09-07T03:45:01.767Z,15.93
2022-09-07T03:47:28.393Z,18.15
2022-09-07T03:49:54.973Z,17.13
2022-09-07T03:52:21.643Z,18.48
2022-09-07T03:54:48.188Z,17.58
2022-09-07T03:57:14.777Z,17.30
2022-09-07T03:59:41.280Z,22.25
2022-09-07T04:02:07.924Z,16.27
2022-09-07T04:04:34.553Z,17.75
2022-09-07T04:07:01.140Z,20.40
2022-09-07T04:09:27.739Z,22.40
2022-09-07T04:11:54.376Z,14.35
2022-09-07T04:14:20.973Z,13.23
2022-09-07T04:16:47.762Z,12.95
2022-09-07T04:19:14.399Z,12.55
2022-09-07T04:21:40.984Z,18.55
2022-09-07T04:24:07.531Z,8.73
2022-09-07T04:26:35.693Z,10.15
2022-09-07T04:29:03.006Z,9.65
2022-09-07T04:31:30.128Z,13.18
2022-09-07T04:33:56.684Z,8.70
2022-09-07T04:36:24.846Z,12.80
2022-09-07T04:38:56.742Z,8.70
2022-09-07T04:43:53.428Z,11.30
2022-09-07T04:46:22.850Z,9.30
2022-09-07T04:48:55.214Z,8.05
2022-09-07T04:51:23.240Z,8.50
2022-09-07T04:53:51.673Z,9.10
2022-09-07T04:56:19.324Z,11.18
2022-09-07T04:58:46.835Z,11.23
2022-09-07T05:01:19.362Z,5.90
2022-09-07T05:03:46.768Z,6.63
2022-09-07T05:06:14.323Z,6.45
2022-09-07T05:08:49.604Z,7.45
2022-09-07T05:11:16.960Z,5.70
2022-09-07T05:13:43.933Z,7.60
2022-09-07T05:16:14.093Z,8.55
2022-09-07T05:18:41.016Z,7.45
2022-09-07T05:21:22.168Z,8.90
2022-09-07T05:23:51.168Z,6.90
2022-09-07T05:26:18.931Z,6.93
2022-09-07T05:28:45.646Z,4.75
2022-09-07T05:31:19.647Z,3.92
2022-09-07T05:39:07.019Z,5.95
2022-09-07T05:41:33.846Z,4.57
2022-09-07T05:46:46.924Z,7.72
2022-09-07T05:49:13.441Z,4.53
2022-09-07T05:51:40.128Z,4.63
2022-09-07T05:54:06.964Z,6.00
2022-09-07T05:56:36.595Z,4.10
2022-09-07T05:59:03.739Z,6.00
2022-09-07T06:01:30.816Z,7.53
2022-09-07T06:03:57.890Z,3.83
2022-09-07T06:06:24.419Z,4.28
2022-09-07T06:08:53.012Z,3.60
2022-09-07T06:11:22.237Z,8.82
2022-09-07T06:13:49.506Z,4.88
2022-09-07T06:16:18.335Z,3.58
2022-09-07T06:18:47.445Z,5.18
2022-09-07T06:21:19.773Z,4.55
2022-09-07T06:23:47.330Z,5.60
2022-09-07T06:26:14.985Z,5.82
2022-09-07T06:28:43.715Z,5.50
2022-09-07T06:31:16.246Z,5.78
2022-09-07T06:33:50.454Z,8.60
2022-09-07T06:36:20.946Z,3.97
2022-09-07T06:38:48.628Z,6.15
2022-09-07T06:44:12.297Z,9.40
2022-09-07T06:49:26.115Z,6.85
2022-09-07T06:51:52.667Z,5.30
2022-09-07T06:57:09.074Z,5.88
2022-09-07T06:59:36.658Z,4.25
2022-09-07T07:02:03.714Z,6.07
2022-09-07T07:04:30.274Z,5.68
2022-09-07T07:06:56.870Z,6.07
2022-09-07T07:09:23.429Z,6.50
2022-09-07T07:11:50.264Z,4.68
2022-09-07T07:14:18.004Z,7.22
2022-09-07T07:16:44.807Z,5.13
2022-09-07T07:19:11.570Z,7.10
2022-09-07T07:22:03.477Z,8.48
2022-09-07T07:24:24.638Z,6.68
2022-09-07T07:26:51.234Z,6.80
2022-09-07T07:29:18.871Z,7.07
2022-09-07T07:31:47.063Z,11.98
2022-09-07T07:34:14.005Z,18.55
2022-09-07T07:36:40.626Z,10.55
2022-09-07T07:39:07.173Z,9.85
2022-09-07T07:44:20.933Z,8.43
2022-09-07T07:46:49.393Z,9.80
2022-09-07T07:49:16.081Z,9.55
2022-09-07T07:54:29.323Z,5.78
2022-09-07T07:56:55.844Z,12.25
2022-09-07T07:59:22.330Z,8.82
2022-09-07T08:01:49.238Z,6.32
2022-09-07T08:04:15.829Z,5.07
2022-09-07T08:06:42.606Z,7.90
2022-09-07T08:09:09.375Z,6.65
2022-09-07T08:11:35.855Z,7.43
2022-09-07T08:14:05.895Z,5.53
2022-09-07T08:16:34.127Z,6.45
2022-09-07T08:19:01.645Z,10.02
2022-09-07T08:21:28.227Z,7.63
2022-09-07T08:23:55.760Z,8.43
2022-09-07T08:26:22.711Z,6.82
2022-09-07T08:28:49.402Z,6.68
2022-09-07T08:31:17.118Z,7.88
2022-09-07T08:33:43.968Z,5.70
2022-09-07T08:36:19.160Z,8.48
2022-09-07T08:38:46.058Z,8.63
2022-09-07T08:41:30.683Z,5.85
2022-09-07T08:44:10.794Z,4.85
2022-09-07T08:47:21.874Z,7.30
2022-09-07T08:49:56.236Z,6.15
2022-09-07T08:52:26.377Z,3.88
2022-09-07T08:55:03.947Z,4.90
2022-09-07T08:57:35.391Z,6.05
2022-09-07T09:00:07.700Z,6.30
2022-09-07T09:02:42.437Z,7.13
2022-09-07T09:05:41.235Z,5.63
2022-09-07T09:08:29.040Z,5.78
2022-09-07T09:11:05.965Z,6.57
2022-09-07T09:13:55.092Z,5.25
2022-09-07T09:16:44.287Z,3.45
2022-09-07T09:19:25.775Z,6.57
2022-09-07T09:22:08.521Z,7.65
2022-09-07T09:24:38.496Z,7.30
2022-09-07T09:27:05.144Z,4.05
2022-09-07T09:29:34.015Z,6.03
2022-09-07T09:32:20.524Z,4.93
2022-09-07T09:35:06.383Z,2.95
2022-09-07T09:37:37.351Z,3.47
2022-09-07T09:40:06.693Z,3.93
2022-09-07T09:42:35.366Z,4.13
2022-09-07T09:45:06.127Z,5.18
2022-09-07T09:47:36.083Z,4.70
2022-09-07T09:52:29.175Z,4.10
2022-09-07T09:53:06.130Z,5.40
2022-09-07T09:55:36.480Z,2.38
2022-09-07T10:01:27.094Z,4.10
2022-09-07T10:06:25.292Z,6.45
2022-09-07T10:08:58.031Z,5.80
2022-09-07T10:12:11.099Z,3.85
2022-09-07T10:14:46.756Z,5.57
2022-09-07T10:17:31.958Z,5.75
2022-09-07T10:20:16.036Z,6.05
2022-09-07T10:22:50.906Z,6.80
2022-09-07T10:25:37.819Z,4.38
2022-09-07T10:28:04.347Z,4.38
2022-09-07T10:30:41.941Z,5.65
2022-09-07T10:33:20.774Z,4.57
2022-09-07T10:36:03.103Z,8.00
2022-09-07T10:38:36.675Z,3.65
2022-09-07T10:41:07.481Z,6.03
2022-09-07T10:43:45.664Z,4.57
2022-09-07T10:46:58.237Z,4.72
2022-09-07T10:49:25.228Z,3.50
2022-09-07T10:52:13.916Z,2.92
2022-09-07T10:54:47.437Z,6.13
2022-09-07T10:57:39.340Z,6.13
2022-09-07T11:00:12.514Z,5.88
2022-09-07T11:03:25.348Z,3.80
2022-09-07T11:05:54.882Z,5.43
2022-09-07T11:08:24.344Z,5.90
2022-09-07T11:11:02.098Z,3.97
2022-09-07T11:13:49.482Z,5.05
2022-09-07T11:19:52.551Z,5.05
2022-09-07T11:22:28.065Z,3.92
2022-09-07T11:25:31.064Z,3.05
2022-09-07T11:28:23.209Z,3.03
2022-09-07T11:31:00.238Z,5.65
2022-09-07T11:37:09.299Z,2.72
2022-09-07T11:39:45.026Z,7.93
2022-09-07T11:45:30.295Z,5.95
2022-09-07T11:48:19.511Z,4.32
2022-09-07T11:50:52.007Z,7.50
2022-09-07T11:53:22.632Z,4.38
2022-09-07T11:55:56.329Z,5.90
2022-09-07T11:59:00.477Z,2.50
2022-09-07T12:01:57.957Z,5.63
2022-09-07T12:04:40.444Z,3.85
2022-09-07T12:07:17.539Z,3.55
2022-09-07T12:09:58.165Z,3.53
2022-09-07T12:12:43.648Z,3.95
2022-09-07T12:15:32.777Z,4.03
2022-09-07T12:18:04.385Z,5.07
2022-09-07T12:20:44.442Z,4.38
2022-09-07T12:23:16.953Z,7.47
2022-09-07T12:25:45.717Z,4.65
2022-09-07T12:28:21.880Z,2.92
2022-09-07T12:30:55.746Z,3.25
2022-09-07T12:33:28.373Z,3.83
2022-09-07T12:35:57.942Z,3.10
2022-09-07T12:38:30.253Z,2.53
2022-09-07T12:41:20.259Z,3.42
2022-09-07T12:44:04.425Z,4.82
2022-09-07T12:46:34.692Z,3.85
2022-09-07T12:49:01.689Z,2.75
2022-09-07T12:54:38.218Z,2.47
2022-09-07T12:57:41.167Z,3.55
2022-09-07T13:00:20.732Z,3.65
2022-09-07T13:02:56.864Z,6.18
2022-09-07T13:06:00.980Z,3.22
2022-09-07T13:08:39.623Z,7.30
2022-09-07T13:11:27.511Z,3.58
2022-09-07T13:14:04.742Z,2.65
2022-09-07T13:17:16.038Z,3.53
2022-09-07T13:19:46.454Z,6.97
2022-09-07T13:22:31.280Z,4.73
2022-09-07T13:25:21.083Z,2.10
2022-09-07T13:28:03.060Z,2.65
2022-09-07T13:30:38.437Z,6.50
2022-09-07T13:33:34.536Z,4.75
2022-09-07T13:36:03.523Z,2.33
2022-09-07T13:38:32.933Z,2.80
2022-09-07T13:41:17.719Z,5.63
2022-09-07T13:43:49.310Z,2.65
2022-09-07T13:46:49.052Z,6.60
2022-09-07T13:49:37.080Z,2.83
2022-09-07T13:52:18.112Z,5.07
2022-09-07T13:55:31.662Z,4.93
2022-09-07T13:58:11.643Z,3.90
2022-09-07T14:00:54.111Z,3.85
2022-09-07T14:03:22.531Z,4.85
2022-09-07T14:05:49.070Z,3.85
2022-09-07T14:08:29.601Z,2.53
2022-09-07T14:10:56.086Z,3.97
2022-09-07T14:13:22.607Z,6.38
2022-09-07T14:15:50.395Z,4.10
2022-09-07T14:18:30.250Z,6.07
2022-09-07T14:20:59.275Z,3.05
2022-09-07T14:23:32.773Z,6.38
2022-09-07T14:26:19.267Z,3.15
2022-09-07T14:29:03.778Z,4.38
2022-09-07T14:31:31.254Z,3.95
2022-09-07T14:34:00.357Z,3.35
2022-09-07T14:36:45.318Z,4.68
2022-09-07T14:39:15.183Z,5.60
2022-09-07T14:41:43.208Z,9.35
2022-09-07T14:44:33.631Z,4.80
2022-09-07T14:47:20.472Z,2.58
2022-09-07T14:49:55.944Z,5.57
2022-09-07T14:52:36.711Z,3.83
2022-09-07T14:55:19.277Z,7.32
2022-09-07T14:57:45.842Z,4.07
2022-09-07T15:00:20.950Z,8.18
2022-09-07T15:02:47.468Z,3.33
2022-09-07T15:05:20.589Z,5.93
2022-09-07T15:07:59.510Z,4.68
2022-09-07T15:10:28.334Z,4.50
2022-09-07T15:12:57.600Z,3.88
2022-09-07T15:15:33.875Z,5.38
2022-09-07T15:18:08.541Z,5.30
2022-09-07T15:20:38.641Z,6.40
2022-09-07T15:23:12.611Z,5.93
2022-09-07T15:25:40.726Z,4.55
2022-09-07T15:28:07.853Z,4.18
2022-09-07T15:30:34.820Z,2.85
2022-09-07T15:33:01.481Z,4.13
2022-09-07T15:35:28.019Z,6.22
2022-09-07T15:38:02.872Z,5.03
2022-09-07T15:40:56.225Z,4.40
2022-09-07T15:43:28.563Z,4.88
2022-09-07T15:45:55.340Z,8.30
2022-09-07T15:48:25.317Z,2.35
2022-09-07T15:50:59.813Z,6.40
2022-09-07T15:56:13.383Z,3.20
2022-09-07T15:58:40.113Z,2.83
2022-09-07T16:03:54.571Z,5.00
2022-09-07T16:06:22.466Z,6.68
2022-09-07T16:08:51.502Z,4.85
2022-09-07T16:11:24.309Z,3.65
2022-09-07T16:14:02.169Z,5.30
2022-09-07T16:19:22.226Z,3.85
2022-09-07T16:21:48.890Z,4.38
2022-09-07T16:24:17.240Z,4.90
2022-09-07T16:26:43.753Z,6.05
2022-09-07T16:29:10.326Z,4.40
2022-09-07T16:31:37.148Z,5.90
2022-09-07T16:34:04.109Z,6.60
2022-09-07T16:36:30.827Z,2.88
2022-09-07T16:38:59.643Z,3.10
2022-09-07T16:41:29.310Z,6.15
2022-09-07T16:43:56.195Z,5.28
2022-09-07T16:46:26.494Z,3.55
2022-09-07T16:48:53.574Z,5.25
2022-09-07T16:51:21.827Z,2.50
2022-09-07T16:53:50.293Z,4.15
2022-09-07T16:56:19.469Z,3.60
2022-09-07T16:58:57.466Z,3.22
2022-09-07T17:01:27.189Z,3.50
2022-09-07T17:03:54.005Z,4.05
2022-09-07T17:06:23.547Z,4.78
2022-09-07T17:08:50.507Z,3.25
2022-09-07T17:11:29.746Z,5.43
2022-09-07T17:13:57.993Z,3.80
2022-09-07T17:16:35.502Z,5.72
2022-09-07T17:21:53.734Z,6.03
2022-09-07T17:24:21.185Z,8.00
2022-09-07T17:26:48.324Z,5.07
2022-09-07T17:29:15.178Z,5.75
2022-09-07T17:34:29.932Z,9.00
2022-09-07T17:36:56.495Z,3.70
2022-09-07T17:39:23.483Z,6.57
2022-09-07T17:41:54.299Z,3.38
2022-09-07T17:44:23.185Z,5.73
2022-09-07T17:46:49.907Z,6.28
2022-09-07T17:49:16.917Z,5.95
2022-09-07T17:51:44.729Z,6.00
2022-09-07T17:54:16.603Z,10.88
2022-09-07T17:56:44.626Z,7.82
2022-09-07T18:01:58.737Z,7.07
2022-09-07T18:04:25.847Z,4.40
2022-09-07T18:06:54.116Z,8.45
2022-09-07T18:09:20.653Z,5.18
2022-09-07T18:11:49.047Z,4.60
2022-09-07T18:14:16.585Z,4.88
2022-09-07T18:16:44.957Z,5.47
2022-09-07T18:19:12.409Z,7.43
2022-09-07T18:21:40.936Z,4.05
2022-09-07T18:24:20.698Z,6.25
2022-09-07T18:26:50.616Z,5.47
2022-09-07T18:29:31.193Z,7.97
2022-09-07T18:32:01.165Z,5.65
2022-09-07T18:34:28.978Z,5.07
2022-09-07T18:36:55.827Z,7.38
2022-09-07T18:39:22.742Z,8.75
2022-09-07T18:41:49.233Z,7.75
2022-09-07T18:47:02.396Z,10.75
2022-09-07T18:49:28.872Z,9.98
2022-09-07T18:54:41.866Z,12.13
2022-09-07T18:57:08.684Z,9.50
2022-09-07T18:59:35.347Z,6.15
2022-09-07T19:02:04.855Z,6.63
2022-09-07T19:07:20.518Z,9.40
2022-09-07T19:09:48.132Z,14.63
2022-09-07T19:12:15.090Z,9.30
2022-09-07T19:14:42.226Z,9.18
2022-09-07T19:17:10.936Z,7.38
2022-09-07T19:19:38.717Z,11.13
2022-09-07T19:22:05.986Z,12.05
2022-09-07T19:24:33.175Z,7.18
2022-09-07T19:27:00.838Z,9.13
2022-09-07T19:29:28.040Z,8.40
2022-09-07T19:32:07.805Z,6.60
2022-09-07T19:34:45.531Z,5.55
2022-09-07T19:37:13.259Z,7.28
2022-09-07T19:39:39.838Z,9.60
2022-09-07T19:42:07.048Z,6.20
2022-09-07T19:44:34.010Z,5.50
2022-09-07T19:47:00.838Z,11.90
2022-09-07T19:49:28.202Z,11.02
2022-09-07T19:51:54.817Z,9.95
2022-09-07T19:54:21.451Z,8.95
2022-09-07T19:56:47.944Z,5.53
2022-09-07T19:59:14.619Z,8.95
2022-09-07T20:01:45.953Z,6.97
2022-09-07T20:04:19.678Z,8.90
2022-09-07T20:06:48.070Z,7.90
2022-09-07T20:09:14.641Z,9.07
2022-09-07T20:11:46.073Z,7.63
2022-09-07T20:14:13.745Z,7.88
2022-09-07T20:16:41.681Z,9.85
2022-09-07T20:19:08.445Z,6.47
2022-09-07T20:21:36.869Z,7.53
2022-09-07T20:24:03.964Z,11.02
2022-09-07T20:26:32.230Z,8.75
2022-09-07T20:29:16.766Z,7.35
2022-09-07T20:31:46.839Z,10.48
2022-09-07T20:34:13.662Z,6.45
2022-09-07T20:36:40.514Z,6.68
2022-09-07T20:39:07.080Z,6.30
2022-09-07T20:41:34.284Z,8.77
2022-09-07T20:44:02.686Z,8.48
2022-09-07T20:46:30.276Z,5.68
2022-09-07T20:48:57.259Z,5.43
2022-09-07T20:51:23.847Z,5.22
2022-09-07T20:53:50.906Z,9.65
2022-09-07T20:56:18.740Z,4.60
2022-09-07T20:58:46.646Z,8.07
2022-09-07T21:01:15.704Z,6.55
2022-09-07T21:03:54.244Z,7.38
2022-09-07T21:06:22.453Z,5.75
2022-09-07T21:08:49.886Z,6.13
2022-09-07T21:11:22.848Z,6.15
2022-09-07T21:13:59.260Z,6.38
2022-09-07T21:16:26.211Z,11.52
2022-09-07T21:18:55.268Z,8.00
2022-09-07T21:21:23.191Z,8.10
2022-09-07T21:23:55.715Z,9.35
2022-09-07T21:26:23.143Z,5.45
2022-09-07T21:29:01.541Z,7.90
2022-09-07T21:31:29.861Z,7.95
2022-09-07T21:33:58.693Z,9.43
2022-09-07T21:36:25.985Z,7.45
2022-09-07T21:38:53.046Z,7.15
2022-09-07T21:41:21.260Z,9.43
2022-09-07T21:43:47.727Z,10.15
2022-09-07T21:46:17.414Z,8.32
2022-09-07T21:48:45.557Z,9.27
2022-09-07T21:51:13.608Z,7.85
2022-09-07T21:53:40.722Z,10.23
2022-09-07T21:56:11.146Z,6.40
2022-09-07T21:58:38.503Z,6.75
2022-09-07T22:01:12.504Z,8.55
2022-09-07T22:03:40.384Z,12.68
2022-09-07T22:06:08.317Z,7.25
2022-09-07T22:08:36.304Z,6.35
2022-09-07T22:11:09.366Z,7.93
2022-09-07T22:13:36.537Z,9.40
2022-09-07T22:16:04.461Z,6.93
2022-09-07T22:18:31.569Z,7.35
2022-09-07T22:21:12.774Z,8.60
2022-09-07T22:23:42.641Z,10.07
2022-09-07T22:26:09.758Z,8.20
2022-09-07T22:28:37.087Z,8.15
2022-09-07T22:31:12.454Z,8.02
2022-09-07T22:33:40.007Z,8.48
2022-09-07T22:36:11.413Z,7.63
2022-09-07T22:38:38.745Z,8.75
2022-09-07T22:41:10.468Z,8.90
2022-09-07T22:43:37.005Z,6.68
2022-09-07T22:46:03.986Z,8.93
2022-09-07T22:48:30.643Z,8.80
2022-09-07T22:50:58.941Z,10.55
2022-09-07T22:53:30.351Z,11.40
2022-09-07T22:55:57.246Z,10.48
2022-09-07T22:58:23.893Z,10.52
2022-09-07T23:00:51.466Z,7.70
2022-09-07T23:03:18.521Z,6.97
2022-09-07T23:05:45.000Z,6.80
2022-09-07T23:08:11.877Z,11.77
2022-09-07T23:10:39.084Z,8.77
2022-09-07T23:13:05.929Z,9.38
2022-09-07T23:15:35.937Z,9.43
2022-09-07T23:18:02.383Z,9.35
2022-09-07T23:20:28.961Z,7.60
2022-09-07T23:22:55.443Z,11.00
2022-09-07T23:25:22.658Z,7.15
2022-09-07T23:27:49.117Z,9.20
2022-09-07T23:30:15.658Z,14.05
2022-09-07T23:32:42.272Z,8.18
2022-09-07T23:35:11.690Z,7.93
2022-09-07T23:37:40.173Z,9.75
2022-09-07T23:40:08.560Z,10.73
2022-09-07T23:42:35.094Z,7.50
2022-09-07T23:45:01.549Z,12.05
2022-09-07T23:47:28.054Z,10.20
2022-09-07T23:49:54.582Z,7.95
2022-09-07T23:52:21.075Z,8.95
2022-09-07T23:54:47.561Z,11.85
2022-09-07T23:57:14.103Z,9.40
2022-09-07T23:59:40.596Z,17.13
